Stinson Municipal Airport San Antonio US
ICAO: KSSF
IATA: SSF
Category: Medium
Scheduled Services: No

Elevation: 577 ft
TransAlt. 18000 ft.

Airport Communications:
SAN ANTONIO APP/DEP:125.7
ATIS:128.8
CLNC DEL:121.7
CTAF:118.2
GND:121.7
TWR:118.2
UNICOM:122.95

KSSF Zoom In..

If you have problems with the map follow the link
https://www.worldairports.se/pages/airport.php?
ICAO=KSSF

Runways:

(A) RW 09 length 5000 ft width 100 ft
---- / hdg 95

(B) RW 14 length 4128 ft width 100 ft
---- / hdg 137

(C) RW 27 length 5000 ft width 100 ft
---- / hdg 275

(D) RW 32 length 4128 ft width 100 ft
---- / hdg 317

Location; KSSF
Day. 08 / Time. 17.53 Zulu
* Altimeter: 30.02
* Temperature: 19° c. 66.2°f.
* Wind from: 180° Speed 08 kn.
Dewpoint: 13° c.
Visibility: 10 Statute Miles.
Clouds: Clear (automated report).

KSSF 081753Z 18008KT 10SM CLR 19/13 A3002 RMK AO2 SLP166 T01890133 10189 20067 58013


Wind From 180°
Speed 08 kn.

 
 
jpsmedia worldairports.se 2019   terms of use